Time;durP1;ratioP1;P1;durP2;ratioP2;P2;SDS_P1;SDS_P2;PMS_P1;PMS_P2;Temp;Humidity;BMP_temperature;BMP_pressure;BME280_temperature;BME280_humidity;BME280_pressure;Samples;Min_cycle;Max_cycle;Signal;HPM_P1;HPM_P2
2022/01/18 00:00:29;;;;;;;16.57;3.93;;;;;;;;;;4992105;28;20200;-78
2022/01/18 00:02:58;;;;;;;10.23;4.07;;;;;;;;;;4994893;28;20503;-77
2022/01/18 00:05:25;;;;;;;8.87;3.50;;;;;;;;;;4993435;28;21010;-77
2022/01/18 00:07:53;;;;;;;11.35;3.90;;;;;;;;;;4992996;28;20467;-77
2022/01/18 00:10:23;;;;;;;15.25;3.90;;;;;;;;;;4996929;28;20196;-77
2022/01/18 00:15:39;;;;;;;11.73;3.50;;;;;;;;;;4973675;28;20466;-77
2022/01/18 00:18:09;;;;;;;12.97;3.33;;;;;;;;;;4992274;28;20482;-77
2022/01/18 00:20:47;;;;;;;19.33;5.83;;;;;;;;;;4994735;28;20543;-78
2022/01/18 00:23:14;;;;;;;11.70;4.07;;;;;;;;;;4976263;28;20487;-78
2022/01/18 00:25:46;;;;;;;14.07;4.20;;;;;;;;;;4992251;28;20713;-78
2022/01/18 00:28:14;;;;;;;9.10;3.80;;;;;;;;;;4994210;28;20463;-77
2022/01/18 00:33:26;;;;;;;16.20;4.00;;;;;;;;;;4973178;28;20476;-77
2022/01/18 00:36:01;;;;;;;16.53;4.17;;;;;;;;;;4989111;28;20878;-77
2022/01/18 00:38:32;;;;;;;11.57;4.43;;;;;;;;;;4977523;28;20530;-77
2022/01/18 00:41:01;;;;;;;10.27;3.37;;;;;;;;;;4977193;28;20255;-78
2022/01/18 00:43:28;;;;;;;17.50;4.40;;;;;;;;;;4993493;28;20488;-77
2022/01/18 00:45:55;;;;;;;16.90;4.37;;;;;;;;;;4992841;28;20464;-77
2022/01/18 00:48:22;;;;;;;16.08;3.78;;;;;;;;;;4990067;28;20809;-78
2022/01/18 00:50:50;;;;;;;15.73;3.60;;;;;;;;;;4988768;28;20300;-76
2022/01/18 00:53:19;;;;;;;19.43;4.10;;;;;;;;;;4991338;28;20197;-77
2022/01/18 00:55:53;;;;;;;15.23;3.70;;;;;;;;;;4992069;28;20475;-77
2022/01/18 00:58:21;;;;;;;15.47;3.73;;;;;;;;;;4993922;28;20447;-77
2022/01/18 01:00:51;;;;;;;9.73;4.53;;;;;;;;;;4993846;28;20819;-78
2022/01/18 01:03:18;;;;;;;12.13;4.10;;;;;;;;;;4991422;28;20491;-77
2022/01/18 01:05:45;;;;;;;17.20;4.33;;;;;;;;;;4988383;28;20452;-78
2022/01/18 01:08:12;;;;;;;14.00;3.92;;;;;;;;;;4991943;28;20451;-78
2022/01/18 01:10:39;;;;;;;18.33;4.30;;;;;;;;;;4991381;28;20196;-77
2022/01/18 01:13:07;;;;;;;12.57;3.63;;;;;;;;;;4993300;28;20467;-79
2022/01/18 01:15:48;;;;;;;14.73;4.90;;;;;;;;;;4974416;28;21000;-78
2022/01/18 01:18:31;;;;;;;25.30;5.23;;;;;;;;;;4974832;28;20455;-79
2022/01/18 01:34:39;;;;;;;14.88;4.82;;;;;;;;;;4990456;28;20224;-77
2022/01/18 01:42:53;;;;;;;15.40;5.13;;;;;;;;;;4989855;28;20239;-77
2022/01/18 01:45:19;;;;;;;17.52;3.53;;;;;;;;;;4978114;28;20252;-77
2022/01/18 01:47:51;;;;;;;10.38;4.22;;;;;;;;;;4993303;28;20278;-77
2022/01/18 01:50:20;;;;;;;10.65;4.00;;;;;;;;;;4993429;28;20219;-76
2022/01/18 01:52:48;;;;;;;9.70;4.07;;;;;;;;;;4993113;28;20203;-77
2022/01/18 01:55:15;;;;;;;13.18;3.30;;;;;;;;;;4993123;28;20293;-76
2022/01/18 01:57:42;;;;;;;13.90;4.22;;;;;;;;;;4995146;28;20212;-76
2022/01/18 02:00:12;;;;;;;22.55;4.60;;;;;;;;;;4991892;28;20200;-76
2022/01/18 02:02:39;;;;;;;16.52;4.40;;;;;;;;;;4988385;28;20213;-76
2022/01/18 02:05:09;;;;;;;21.52;4.40;;;;;;;;;;4989450;28;20216;-76
2022/01/18 02:07:36;;;;;;;9.75;3.30;;;;;;;;;;4991015;28;20192;-76
2022/01/18 02:10:07;;;;;;;16.77;3.38;;;;;;;;;;4992609;28;20228;-77
2022/01/18 02:12:34;;;;;;;15.55;5.00;;;;;;;;;;4992836;28;20773;-77
2022/01/18 02:15:10;;;;;;;18.70;4.35;;;;;;;;;;4992659;28;20765;-77
2022/01/18 02:23:08;;;;;;;17.83;3.80;;;;;;;;;;4987373;28;20689;-76
2022/01/18 02:25:36;;;;;;;13.88;3.65;;;;;;;;;;4988141;28;20575;-76
2022/01/18 02:28:04;;;;;;;15.30;4.50;;;;;;;;;;4989841;28;20196;-77
2022/01/18 02:30:31;;;;;;;14.60;4.13;;;;;;;;;;4991591;28;20204;-76
2022/01/18 02:32:58;;;;;;;17.13;5.10;;;;;;;;;;4990509;28;20444;-76
2022/01/18 02:35:25;;;;;;;12.10;3.90;;;;;;;;;;4991850;28;20472;-77
2022/01/18 02:37:54;;;;;;;12.33;3.93;;;;;;;;;;4987768;28;20464;-77
2022/01/18 02:40:22;;;;;;;14.63;3.30;;;;;;;;;;4988502;28;20933;-76
2022/01/18 02:42:57;;;;;;;15.50;4.40;;;;;;;;;;4987568;28;20565;-76
2022/01/18 02:45:24;;;;;;;13.90;3.67;;;;;;;;;;4989965;28;20474;-77
2022/01/18 02:47:51;;;;;;;9.83;3.60;;;;;;;;;;4991134;28;20471;-77
2022/01/18 02:50:18;;;;;;;16.63;4.57;;;;;;;;;;4991033;28;20463;-78
2022/01/18 02:52:46;;;;;;;16.48;4.20;;;;;;;;;;4994842;28;20539;-77
2022/01/18 02:55:14;;;;;;;12.75;4.32;;;;;;;;;;4993716;28;20583;-78
2022/01/18 02:57:54;;;;;;;12.75;3.75;;;;;;;;;;4987812;28;20196;-78
2022/01/18 03:00:29;;;;;;;14.25;4.72;;;;;;;;;;4986415;28;20528;-78
2022/01/18 03:05:38;;;;;;;15.17;5.47;;;;;;;;;;4975512;28;20452;-76
2022/01/18 03:08:05;;;;;;;17.30;4.83;;;;;;;;;;4989836;28;20483;-78
2022/01/18 03:10:33;;;;;;;21.57;4.67;;;;;;;;;;4990335;28;20443;-77
2022/01/18 03:13:01;;;;;;;14.68;4.43;;;;;;;;;;4991206;28;20467;-78
2022/01/18 03:15:28;;;;;;;12.23;4.95;;;;;;;;;;4985021;28;20583;-78
2022/01/18 03:17:55;;;;;;;16.00;4.05;;;;;;;;;;4986553;28;20597;-78
2022/01/18 03:20:23;;;;;;;11.85;3.45;;;;;;;;;;4991134;28;20196;-77
2022/01/18 03:22:51;;;;;;;8.68;3.97;;;;;;;;;;4990584;28;20224;-77
2022/01/18 03:25:28;;;;;;;13.37;3.83;;;;;;;;;;4990244;28;20647;-77
2022/01/18 03:30:38;;;;;;;9.85;3.30;;;;;;;;;;4975161;28;22169;-78
2022/01/18 03:33:12;;;;;;;8.00;4.07;;;;;;;;;;4985266;28;20196;-78
2022/01/18 03:35:40;;;;;;;8.88;3.17;;;;;;;;;;4971851;28;20502;-78
2022/01/18 03:38:08;;;;;;;14.50;4.05;;;;;;;;;;4993259;28;20212;-77
2022/01/18 03:40:35;;;;;;;23.67;4.93;;;;;;;;;;4991762;28;20204;-77
2022/01/18 03:43:06;;;;;;;13.80;4.50;;;;;;;;;;4994145;28;20225;-78
2022/01/18 03:45:40;;;;;;;12.70;5.25;;;;;;;;;;4994448;28;20217;-78
2022/01/18 03:48:11;;;;;;;17.63;4.80;;;;;;;;;;4991919;28;20196;-77
2022/01/18 03:50:38;;;;;;;10.53;4.23;;;;;;;;;;4974527;28;20985;-77
2022/01/18 03:53:05;;;;;;;14.50;5.13;;;;;;;;;;4991856;28;20460;-78
2022/01/18 03:55:32;;;;;;;12.20;3.83;;;;;;;;;;4992575;28;20231;-77
2022/01/18 03:58:00;;;;;;;12.50;4.07;;;;;;;;;;4994911;28;20456;-77
2022/01/18 04:00:29;;;;;;;23.42;5.10;;;;;;;;;;4994804;28;20959;-78
2022/01/18 04:02:57;;;;;;;17.02;4.57;;;;;;;;;;4994312;28;20227;-78
2022/01/18 04:05:24;;;;;;;17.77;4.20;;;;;;;;;;4995110;28;20217;-76
2022/01/18 04:07:51;;;;;;;16.88;4.18;;;;;;;;;;4989377;28;20217;-77
2022/01/18 04:10:19;;;;;;;13.05;4.03;;;;;;;;;;4990185;28;20196;-77
2022/01/18 04:12:46;;;;;;;18.27;5.00;;;;;;;;;;4994971;28;20200;-77
2022/01/18 04:15:15;;;;;;;8.32;3.90;;;;;;;;;;4994396;28;20839;-77
2022/01/18 04:18:04;;;;;;;13.93;5.28;;;;;;;;;;4992864;28;20204;-78
2022/01/18 04:26:00;;;;;;;15.15;5.13;;;;;;;;;;4995383;28;20451;-77
2022/01/18 04:28:34;;;;;;;18.17;5.23;;;;;;;;;;4993832;28;20653;-76
2022/01/18 04:31:02;;;;;;;16.17;4.63;;;;;;;;;;4972551;28;20430;-77
2022/01/18 04:33:30;;;;;;;15.82;4.90;;;;;;;;;;4988375;28;20308;-78
2022/01/18 04:35:57;;;;;;;17.20;4.97;;;;;;;;;;4993759;28;20209;-77
2022/01/18 04:38:24;;;;;;;21.77;5.68;;;;;;;;;;4992045;28;20443;-77
2022/01/18 04:40:52;;;;;;;16.58;5.32;;;;;;;;;;4989217;28;20192;-78
2022/01/18 04:43:24;;;;;;;17.00;6.00;;;;;;;;;;4993262;28;20716;-78
2022/01/18 04:48:35;;;;;;;18.27;5.28;;;;;;;;;;4973306;28;20193;-77
2022/01/18 04:51:04;;;;;;;20.58;5.85;;;;;;;;;;4989702;28;20564;-77
2022/01/18 04:53:32;;;;;;;20.42;7.22;;;;;;;;;;4993891;28;20215;-77
2022/01/18 04:56:03;;;;;;;19.20;6.35;;;;;;;;;;4993991;28;20331;-77
2022/01/18 04:58:29;;;;;;;18.70;5.90;;;;;;;;;;4993565;28;20201;-77
2022/01/18 05:00:59;;;;;;;19.40;5.68;;;;;;;;;;4993879;28;20557;-77
2022/01/18 05:03:27;;;;;;;25.05;6.20;;;;;;;;;;4988720;28;20701;-76
2022/01/18 05:05:57;;;;;;;17.13;6.22;;;;;;;;;;4988175;28;20231;-77
2022/01/18 05:08:25;;;;;;;21.40;5.70;;;;;;;;;;4993415;28;20204;-76
2022/01/18 05:10:55;;;;;;;15.75;5.47;;;;;;;;;;4988703;28;20203;-76
2022/01/18 05:13:41;;;;;;;19.42;6.05;;;;;;;;;;4975998;28;20209;-77
2022/01/18 05:16:28;;;;;;;18.85;6.30;;;;;;;;;;4993642;28;20204;-76
2022/01/18 05:19:02;;;;;;;23.20;5.53;;;;;;;;;;4975771;28;20204;-78
2022/01/18 05:21:34;;;;;;;18.63;5.80;;;;;;;;;;4994797;28;20299;-78
2022/01/18 05:24:01;;;;;;;25.20;6.68;;;;;;;;;;4977653;28;20506;-79
2022/01/18 05:26:29;;;;;;;10.82;4.90;;;;;;;;;;4978613;28;20699;-77
2022/01/18 05:28:57;;;;;;;17.48;5.70;;;;;;;;;;4989995;28;20247;-77
2022/01/18 05:31:25;;;;;;;25.92;5.60;;;;;;;;;;4991024;28;20185;-77
2022/01/18 05:33:52;;;;;;;16.77;6.10;;;;;;;;;;4992998;28;20562;-78
2022/01/18 05:36:20;;;;;;;14.05;5.82;;;;;;;;;;4991266;28;20204;-78
2022/01/18 05:38:48;;;;;;;26.35;6.43;;;;;;;;;;4993242;28;20287;-77
2022/01/18 05:41:16;;;;;;;23.02;6.50;;;;;;;;;;4991957;28;20599;-77
2022/01/18 05:43:43;;;;;;;17.07;6.03;;;;;;;;;;4987430;28;20231;-77
2022/01/18 05:46:10;;;;;;;17.63;6.15;;;;;;;;;;4987786;28;20516;-77
2022/01/18 05:48:38;;;;;;;16.38;5.70;;;;;;;;;;4974124;28;20204;-77
2022/01/18 05:51:05;;;;;;;21.20;6.38;;;;;;;;;;4974240;28;20197;-77
2022/01/18 05:53:34;;;;;;;19.80;5.28;;;;;;;;;;4987993;28;20552;-77
2022/01/18 05:56:03;;;;;;;17.83;6.10;;;;;;;;;;4988788;28;20224;-78
2022/01/18 05:58:30;;;;;;;20.25;6.80;;;;;;;;;;4971452;28;20197;-75
2022/01/18 06:00:57;;;;;;;17.38;5.18;;;;;;;;;;4973991;28;20197;-76
2022/01/18 06:03:31;;;;;;;21.25;6.00;;;;;;;;;;4976003;28;20220;-76
2022/01/18 06:08:39;;;;;;;11.25;5.00;;;;;;;;;;4972368;28;20292;-76
2022/01/18 06:11:08;;;;;;;15.85;5.63;;;;;;;;;;4992795;28;20196;-78
2022/01/18 06:13:35;;;;;;;30.10;6.53;;;;;;;;;;4992285;28;20204;-77
2022/01/18 06:18:52;;;;;;;16.48;6.15;;;;;;;;;;5128755;27;20544;-77
2022/01/18 06:21:19;;;;;;;24.10;8.15;;;;;;;;;;5110012;27;20193;-76
2022/01/18 06:23:46;;;;;;;24.27;7.55;;;;;;;;;;5099653;28;20193;-76
2022/01/18 06:26:15;;;;;;;25.80;7.55;;;;;;;;;;5086584;28;20194;-77
2022/01/18 06:28:42;;;;;;;23.23;6.28;;;;;;;;;;5087524;28;20193;-77
2022/01/18 06:31:09;;;;;;;14.95;6.25;;;;;;;;;;5088148;28;20209;-76
2022/01/18 06:33:37;;;;;;;15.93;6.43;;;;;;;;;;5087933;28;20193;-77
2022/01/18 06:36:06;;;;;;;16.10;5.97;;;;;;;;;;5081706;28;20208;-77
2022/01/18 06:38:33;;;;;;;16.38;6.57;;;;;;;;;;5086876;28;20689;-76
2022/01/18 06:41:00;;;;;;;25.50;6.93;;;;;;;;;;5080402;28;20558;-77
2022/01/18 06:43:28;;;;;;;18.55;6.97;;;;;;;;;;5083796;28;20190;-77
2022/01/18 06:45:55;;;;;;;17.38;6.13;;;;;;;;;;5085828;28;20601;-77
2022/01/18 06:48:22;;;;;;;19.70;6.28;;;;;;;;;;5085742;28;20203;-76
2022/01/18 06:50:49;;;;;;;15.15;5.57;;;;;;;;;;5078040;28;20210;-76
2022/01/18 06:53:18;;;;;;;19.38;7.15;;;;;;;;;;5082703;28;20185;-77
2022/01/18 06:55:51;;;;;;;16.67;6.20;;;;;;;;;;5087896;28;20217;-74
2022/01/18 06:58:18;;;;;;;15.82;8.40;;;;;;;;;;5087439;28;20217;-77
2022/01/18 07:00:45;;;;;;;20.02;7.82;;;;;;;;;;5087466;28;20193;-77
2022/01/18 07:03:12;;;;;;;17.85;6.47;;;;;;;;;;5082843;28;20197;-77
2022/01/18 07:05:40;;;;;;;15.48;6.43;;;;;;;;;;5083688;28;20205;-76
2022/01/18 07:08:07;;;;;;;13.80;6.05;;;;;;;;;;5083165;28;20189;-76
2022/01/18 07:10:36;;;;;;;22.30;6.85;;;;;;;;;;5086399;28;20200;-78
2022/01/18 07:13:03;;;;;;;10.32;6.45;;;;;;;;;;5084361;28;20192;-79
2022/01/18 07:15:30;;;;;;;21.08;6.88;;;;;;;;;;5086993;28;20216;-75
2022/01/18 07:17:57;;;;;;;22.65;6.63;;;;;;;;;;5086166;28;20232;-75
2022/01/18 07:20:24;;;;;;;21.55;7.82;;;;;;;;;;5088199;28;20555;-78
2022/01/18 07:22:52;;;;;;;19.00;7.45;;;;;;;;;;5089075;28;20223;-77
2022/01/18 07:25:19;;;;;;;16.73;5.80;;;;;;;;;;5083136;28;20217;-79
2022/01/18 07:27:47;;;;;;;24.95;7.93;;;;;;;;;;5080728;28;20197;-77
2022/01/18 07:30:14;;;;;;;23.90;7.80;;;;;;;;;;5072730;28;20871;-78
2022/01/18 07:32:42;;;;;;;21.00;7.60;;;;;;;;;;5073346;28;20197;-76
2022/01/18 07:35:11;;;;;;;16.80;7.60;;;;;;;;;;5073303;28;20217;-76
2022/01/18 07:37:39;;;;;;;19.77;7.50;;;;;;;;;;5070994;28;20399;-75
2022/01/18 07:40:07;;;;;;;16.30;7.60;;;;;;;;;;5066956;28;20202;-76
2022/01/18 07:42:34;;;;;;;15.85;7.10;;;;;;;;;;5067781;28;20213;-77
2022/01/18 07:45:03;;;;;;;17.27;6.38;;;;;;;;;;5064814;28;20278;-77
2022/01/18 07:47:30;;;;;;;16.98;6.32;;;;;;;;;;5066636;28;20542;-78
2022/01/18 07:49:57;;;;;;;22.20;6.35;;;;;;;;;;5068705;28;20187;-77
2022/01/18 07:52:24;;;;;;;14.07;5.88;;;;;;;;;;5068323;28;20190;-76
2022/01/18 07:54:51;;;;;;;13.45;6.00;;;;;;;;;;5071708;28;20220;-78
2022/01/18 07:57:20;;;;;;;14.45;5.90;;;;;;;;;;5072737;28;20218;-80
2022/01/18 07:59:47;;;;;;;15.55;5.47;;;;;;;;;;5071000;28;20190;-77
2022/01/18 08:02:16;;;;;;;20.58;5.40;;;;;;;;;;5068571;28;20199;-78
2022/01/18 08:04:43;;;;;;;15.40;6.10;;;;;;;;;;5070103;28;20218;-78
2022/01/18 08:07:10;;;;;;;16.77;6.13;;;;;;;;;;5071709;28;20516;-76
2022/01/18 08:09:37;;;;;;;14.15;4.95;;;;;;;;;;5072695;28;20201;-77
2022/01/18 08:12:05;;;;;;;18.80;5.53;;;;;;;;;;5070796;28;20649;-77
2022/01/18 08:14:33;;;;;;;17.83;6.47;;;;;;;;;;5069999;28;20589;-76
2022/01/18 08:17:01;;;;;;;15.85;6.28;;;;;;;;;;5063706;28;20480;-79
2022/01/18 08:19:30;;;;;;;12.18;5.45;;;;;;;;;;5068205;28;20187;-80
2022/01/18 08:21:57;;;;;;;17.10;6.47;;;;;;;;;;5070580;28;20182;-77
2022/01/18 08:24:25;;;;;;;16.08;5.57;;;;;;;;;;5071242;28;20214;-80
2022/01/18 08:26:53;;;;;;;13.48;5.38;;;;;;;;;;5069869;28;20190;-79
2022/01/18 08:29:20;;;;;;;11.50;5.40;;;;;;;;;;5069017;28;20202;-78
2022/01/18 08:31:47;;;;;;;17.15;5.75;;;;;;;;;;5072114;28;20458;-79
2022/01/18 08:34:15;;;;;;;13.65;5.43;;;;;;;;;;5065719;28;20610;-76
2022/01/18 08:36:43;;;;;;;12.80;5.07;;;;;;;;;;5062665;28;20186;-77
2022/01/18 08:39:11;;;;;;;12.32;6.13;;;;;;;;;;5069757;28;20487;-78
2022/01/18 08:41:38;;;;;;;18.40;5.97;;;;;;;;;;5058613;28;20566;-79
2022/01/18 08:44:07;;;;;;;16.23;6.18;;;;;;;;;;5070968;28;20206;-77
2022/01/18 08:46:34;;;;;;;14.10;5.55;;;;;;;;;;5070738;28;20197;-79
2022/01/18 08:49:02;;;;;;;12.77;5.55;;;;;;;;;;5072269;28;20685;-78
2022/01/18 08:51:29;;;;;;;17.70;6.40;;;;;;;;;;5067924;28;20201;-80
2022/01/18 08:53:58;;;;;;;14.13;6.17;;;;;;;;;;5067030;28;20493;-78
2022/01/18 08:56:25;;;;;;;25.60;6.50;;;;;;;;;;5068894;28;20539;-78
2022/01/18 08:58:53;;;;;;;18.53;7.00;;;;;;;;;;5071548;28;20577;-79
2022/01/18 09:01:20;;;;;;;19.07;6.53;;;;;;;;;;5069545;28;20444;-79
2022/01/18 09:03:48;;;;;;;17.83;5.70;;;;;;;;;;5070499;28;20443;-76
2022/01/18 09:06:16;;;;;;;13.90;5.83;;;;;;;;;;5070695;28;20452;-77
2022/01/18 09:08:44;;;;;;;21.97;6.67;;;;;;;;;;5067302;28;20921;-79
2022/01/18 09:11:12;;;;;;;24.93;5.87;;;;;;;;;;5066323;28;20443;-76
2022/01/18 09:13:40;;;;;;;19.80;6.20;;;;;;;;;;5069100;28;20432;-80
2022/01/18 09:16:09;;;;;;;14.30;6.50;;;;;;;;;;5069167;28;20447;-78
2022/01/18 09:18:38;;;;;;;12.67;6.67;;;;;;;;;;5067785;28;20490;-78
2022/01/18 09:21:05;;;;;;;17.17;6.67;;;;;;;;;;5068411;28;21069;-78
2022/01/18 09:23:32;;;;;;;20.53;7.30;;;;;;;;;;5071437;28;20464;-76
2022/01/18 09:26:00;;;;;;;16.03;6.37;;;;;;;;;;5073516;28;20451;-79
2022/01/18 09:28:28;;;;;;;15.93;6.67;;;;;;;;;;5071566;28;20454;-79
2022/01/18 09:30:56;;;;;;;12.83;5.03;;;;;;;;;;5068433;28;20436;-77
2022/01/18 09:33:23;;;;;;;20.00;8.10;;;;;;;;;;5064489;28;20549;-77
2022/01/18 09:35:58;;;;;;;12.80;6.50;;;;;;;;;;5066308;28;20839;-77
2022/01/18 09:38:25;;;;;;;18.00;5.67;;;;;;;;;;5066150;28;20902;-82
2022/01/18 09:40:52;;;;;;;13.47;5.93;;;;;;;;;;5066890;28;20432;-78
2022/01/18 09:43:19;;;;;;;13.70;7.07;;;;;;;;;;5061391;28;20457;-80
2022/01/18 09:45:48;;;;;;;10.47;5.27;;;;;;;;;;5067423;28;20460;-82
2022/01/18 09:48:16;;;;;;;15.33;5.87;;;;;;;;;;5070654;28;20810;-79
2022/01/18 09:50:44;;;;;;;20.10;5.73;;;;;;;;;;5069217;28;21163;-79
2022/01/18 09:53:12;;;;;;;20.77;7.60;;;;;;;;;;5070060;28;20440;-78
2022/01/18 09:55:40;;;;;;;11.70;5.30;;;;;;;;;;5066566;28;20543;-77
2022/01/18 09:58:08;;;;;;;12.10;4.93;;;;;;;;;;5062598;28;20479;-79
2022/01/18 10:00:36;;;;;;;15.03;5.23;;;;;;;;;;5069510;28;20536;-76
2022/01/18 10:03:09;;;;;;;11.47;5.60;;;;;;;;;;5064551;28;20448;-77
2022/01/18 10:10:59;;;;;;;11.50;5.07;;;;;;;;;;5064277;28;20200;-78
2022/01/18 10:13:27;;;;;;;11.63;6.00;;;;;;;;;;5063603;28;20439;-78
2022/01/18 10:16:02;;;;;;;21.47;6.40;;;;;;;;;;5045698;28;20464;-78
2022/01/18 10:18:36;;;;;;;16.50;7.00;;;;;;;;;;5080814;28;20476;-79
2022/01/18 10:21:06;;;;;;;16.17;7.57;;;;;;;;;;5098926;28;20539;-79
2022/01/18 10:23:34;;;;;;;13.77;7.13;;;;;;;;;;5070231;28;20448;-79
2022/01/18 10:26:15;;;;;;;14.10;6.70;;;;;;;;;;5056557;28;20460;-80
2022/01/18 10:28:42;;;;;;;16.40;6.70;;;;;;;;;;5063361;28;20430;-79
2022/01/18 10:31:24;;;;;;;18.50;7.80;;;;;;;;;;5065571;28;20444;-80
2022/01/18 10:34:11;;;;;;;19.53;8.67;;;;;;;;;;5065015;28;20595;-80
2022/01/18 10:36:51;;;;;;;14.80;8.70;;;;;;;;;;5069695;28;20945;-80
2022/01/18 10:39:21;;;;;;;19.00;8.73;;;;;;;;;;5068314;28;20686;-78
2022/01/18 10:41:48;;;;;;;15.50;8.47;;;;;;;;;;5068484;28;20683;-79
2022/01/18 10:44:18;;;;;;;20.80;9.20;;;;;;;;;;5065861;28;20472;-81
2022/01/18 10:46:48;;;;;;;12.37;7.63;;;;;;;;;;5066380;28;20475;-81
2022/01/18 10:49:27;;;;;;;16.63;8.83;;;;;;;;;;5065775;28;20439;-78
2022/01/18 10:51:57;;;;;;;14.30;8.73;;;;;;;;;;5067527;28;20443;-79
2022/01/18 10:54:34;;;;;;;16.53;9.60;;;;;;;;;;5070487;28;20456;-78
2022/01/18 10:57:03;;;;;;;14.77;8.33;;;;;;;;;;5070111;28;20470;-79
2022/01/18 10:59:30;;;;;;;19.87;10.40;;;;;;;;;;5065873;28;21015;-79
2022/01/18 11:02:05;;;;;;;21.20;9.83;;;;;;;;;;5065577;28;20436;-77
2022/01/18 11:04:34;;;;;;;18.23;9.17;;;;;;;;;;5063838;28;20459;-79
2022/01/18 11:07:03;;;;;;;16.87;9.80;;;;;;;;;;5073281;28;20511;-81
2022/01/18 11:09:31;;;;;;;18.53;9.43;;;;;;;;;;5068892;28;20456;-78
2022/01/18 11:11:58;;;;;;;18.90;8.50;;;;;;;;;;5070974;28;20521;-77
2022/01/18 11:14:26;;;;;;;19.40;9.40;;;;;;;;;;5103206;28;20480;-79
2022/01/18 11:16:56;;;;;;;14.97;10.60;;;;;;;;;;5074020;28;20471;-82
2022/01/18 11:19:35;;;;;;;22.57;11.30;;;;;;;;;;5069331;28;20586;-78
2022/01/18 11:22:06;;;;;;;24.57;11.80;;;;;;;;;;5062594;28;20472;-79
2022/01/18 11:24:36;;;;;;;22.70;11.63;;;;;;;;;;5073504;28;20559;-79
2022/01/18 11:27:07;;;;;;;17.93;11.30;;;;;;;;;;5073224;28;20947;-82
2022/01/18 11:29:35;;;;;;;21.40;10.70;;;;;;;;;;5070101;28;20458;-78
2022/01/18 11:32:03;;;;;;;19.33;11.10;;;;;;;;;;5071251;28;20865;-78
2022/01/18 11:34:36;;;;;;;26.00;12.37;;;;;;;;;;5071110;28;20483;-78
2022/01/18 11:37:10;;;;;;;26.30;14.00;;;;;;;;;;5069189;28;20432;-78
2022/01/18 11:39:37;;;;;;;20.77;13.37;;;;;;;;;;5065682;28;20492;-80
2022/01/18 11:42:08;;;;;;;28.30;13.40;;;;;;;;;;5068362;28;20475;-84
2022/01/18 11:44:36;;;;;;;27.13;12.50;;;;;;;;;;5072691;28;20463;-79
2022/01/18 11:47:04;;;;;;;18.50;12.80;;;;;;;;;;5072507;28;20432;-78
2022/01/18 11:49:33;;;;;;;24.33;12.60;;;;;;;;;;5071599;28;20805;-77
2022/01/18 11:52:05;;;;;;;18.97;12.60;;;;;;;;;;5068420;28;20429;-81
2022/01/18 11:54:41;;;;;;;21.40;11.97;;;;;;;;;;5068969;28;20456;-77
2022/01/18 11:57:23;;;;;;;22.73;13.80;;;;;;;;;;5054595;28;20556;-79
2022/01/18 11:59:51;;;;;;;24.60;13.80;;;;;;;;;;5071734;28;20491;-78
2022/01/18 12:02:27;;;;;;;23.80;14.40;;;;;;;;;;5069196;28;20968;-81
2022/01/18 12:05:08;;;;;;;28.23;15.53;;;;;;;;;;5071128;28;20448;-85
2022/01/18 12:07:50;;;;;;;24.13;13.07;;;;;;;;;;5067626;28;20463;-81
2022/01/18 12:10:33;;;;;;;30.47;13.13;;;;;;;;;;5065990;28;20448;-80
2022/01/18 12:13:02;;;;;;;21.53;12.73;;;;;;;;;;5070749;28;20433;-78
2022/01/18 12:15:45;;;;;;;27.17;13.03;;;;;;;;;;5072247;28;20456;-79
2022/01/18 12:18:14;;;;;;;26.50;15.10;;;;;;;;;;5071038;28;20476;-79
2022/01/18 12:21:00;;;;;;;27.50;15.70;;;;;;;;;;5072699;28;20776;-77
2022/01/18 12:23:29;;;;;;;20.53;12.57;;;;;;;;;;5068395;28;20465;-79
2022/01/18 12:25:59;;;;;;;26.57;13.00;;;;;;;;;;5066256;28;20459;-78
2022/01/18 12:28:55;;;;;;;19.70;11.87;;;;;;;;;;5068100;28;20447;-78
2022/01/18 12:31:53;;;;;;;20.73;12.50;;;;;;;;;;5051777;28;20814;-80
2022/01/18 12:34:34;;;;;;;20.50;11.73;;;;;;;;;;5066551;28;20529;-79
2022/01/18 12:37:17;;;;;;;23.97;12.63;;;;;;;;;;5072163;28;20455;-79
2022/01/18 12:40:05;;;;;;;28.43;15.37;;;;;;;;;;5061959;28;20515;-81
2022/01/18 12:45:15;;;;;;;19.30;13.10;;;;;;;;;;5099981;28;20480;-82
2022/01/18 12:47:45;;;;;;;26.37;13.70;;;;;;;;;;5066908;28;20443;-80
2022/01/18 12:50:15;;;;;;;21.03;13.50;;;;;;;;;;5064371;28;20453;-80
2022/01/18 12:52:49;;;;;;;22.43;13.03;;;;;;;;;;5070155;28;20449;-79
2022/01/18 12:55:31;;;;;;;27.03;13.50;;;;;;;;;;5070771;28;20463;-79
2022/01/18 12:57:59;;;;;;;23.87;14.20;;;;;;;;;;5070694;28;20444;-79
2022/01/18 13:00:27;;;;;;;22.80;12.37;;;;;;;;;;5070118;28;20483;-81
2022/01/18 13:02:59;;;;;;;19.47;13.37;;;;;;;;;;5073248;28;20455;-79
2022/01/18 13:05:35;;;;;;;22.00;14.30;;;;;;;;;;5073506;28;20506;-83
2022/01/18 13:08:03;;;;;;;22.20;12.77;;;;;;;;;;5072172;28;20459;-77
2022/01/18 13:10:38;;;;;;;29.47;14.30;;;;;;;;;;5065061;28;20448;-80
2022/01/18 13:13:06;;;;;;;25.63;13.17;;;;;;;;;;5065203;28;20452;-83
2022/01/18 13:15:51;;;;;;;19.60;13.73;;;;;;;;;;5096225;28;20474;-82
2022/01/18 13:23:55;;;;;;;24.90;13.10;;;;;;;;;;5070265;28;20433;-82
2022/01/18 13:26:31;;;;;;;18.97;13.33;;;;;;;;;;5071661;28;20444;-81
2022/01/18 13:29:10;;;;;;;27.83;13.83;;;;;;;;;;5072558;28;20444;-82
2022/01/18 13:31:37;;;;;;;19.93;13.23;;;;;;;;;;5066261;28;20452;-82
2022/01/18 13:34:04;;;;;;;23.47;12.77;;;;;;;;;;5062526;28;20499;-80
2022/01/18 13:36:33;;;;;;;26.73;14.00;;;;;;;;;;5066705;28;20470;-80
2022/01/18 13:39:15;;;;;;;23.70;13.07;;;;;;;;;;5066820;28;20491;-80
2022/01/18 13:41:43;;;;;;;21.83;12.80;;;;;;;;;;5063450;28;20467;-79
2022/01/18 13:44:10;;;;;;;20.63;13.17;;;;;;;;;;5068587;28;20472;-79
2022/01/18 13:46:37;;;;;;;18.83;12.50;;;;;;;;;;5068936;28;20467;-78
2022/01/18 13:49:06;;;;;;;24.20;13.07;;;;;;;;;;5066844;28;20428;-79
2022/01/18 13:51:34;;;;;;;17.57;12.20;;;;;;;;;;5065260;28;20437;-81
2022/01/18 13:54:05;;;;;;;24.73;12.97;;;;;;;;;;5069648;28;20457;-81
2022/01/18 13:56:32;;;;;;;23.00;13.27;;;;;;;;;;5072095;28;20443;-78
2022/01/18 13:59:01;;;;;;;19.67;13.17;;;;;;;;;;5069398;28;20456;-79
2022/01/18 14:01:28;;;;;;;23.17;13.00;;;;;;;;;;5067681;28;20454;-80
2022/01/18 14:03:57;;;;;;;24.20;12.63;;;;;;;;;;5068560;28;20476;-81
2022/01/18 14:06:35;;;;;;;27.73;14.23;;;;;;;;;;5066120;28;20519;-79
2022/01/18 14:09:02;;;;;;;19.73;12.73;;;;;;;;;;5067608;28;20447;-79
2022/01/18 14:11:33;;;;;;;22.70;12.60;;;;;;;;;;5067825;28;20483;-81
2022/01/18 14:14:01;;;;;;;21.33;13.00;;;;;;;;;;5070742;28;20456;-79
2022/01/18 14:16:30;;;;;;;21.67;12.60;;;;;;;;;;5069040;28;20440;-81
2022/01/18 14:18:58;;;;;;;26.00;12.50;;;;;;;;;;5070168;28;20945;-85
2022/01/18 14:21:27;;;;;;;26.47;13.00;;;;;;;;;;5066089;28;20462;-81
2022/01/18 14:24:09;;;;;;;19.37;12.33;;;;;;;;;;5063929;28;20448;-78
2022/01/18 14:26:40;;;;;;;26.23;12.57;;;;;;;;;;5067721;28;20986;-85
2022/01/18 14:29:08;;;;;;;22.07;11.57;;;;;;;;;;5067926;28;20452;-80
2022/01/18 14:31:35;;;;;;;21.33;11.70;;;;;;;;;;5068937;28;20446;-81
2022/01/18 14:34:04;;;;;;;21.90;11.63;;;;;;;;;;5067797;28;20796;-81
2022/01/18 14:36:32;;;;;;;24.63;11.90;;;;;;;;;;5068433;28;20449;-78
2022/01/18 14:39:07;;;;;;;24.40;12.67;;;;;;;;;;5067380;28;20455;-82
2022/01/18 14:41:34;;;;;;;18.87;11.17;;;;;;;;;;5069035;28;20457;-79
2022/01/18 14:44:12;;;;;;;22.57;11.33;;;;;;;;;;5072723;28;20559;-78
2022/01/18 14:46:57;;;;;;;19.97;11.60;;;;;;;;;;5073141;28;20500;-79
2022/01/18 14:49:24;;;;;;;21.67;10.73;;;;;;;;;;5074457;28;20443;-81
2022/01/18 14:51:52;;;;;;;28.97;13.07;;;;;;;;;;5073335;28;20460;-79
2022/01/18 14:54:19;;;;;;;19.77;12.10;;;;;;;;;;5076612;28;20467;-79
2022/01/18 14:56:46;;;;;;;20.80;12.63;;;;;;;;;;5073245;28;20457;-83
2022/01/18 14:59:14;;;;;;;18.30;10.60;;;;;;;;;;5073877;28;20459;-82
2022/01/18 15:01:42;;;;;;;24.53;12.70;;;;;;;;;;5069825;28;20446;-79
2022/01/18 15:04:11;;;;;;;22.23;11.87;;;;;;;;;;5071458;28;20819;-79
2022/01/18 15:06:39;;;;;;;25.00;12.17;;;;;;;;;;5072660;28;20504;-80
2022/01/18 15:09:06;;;;;;;21.50;11.63;;;;;;;;;;5072451;28;20946;-82
2022/01/18 15:11:36;;;;;;;20.67;11.03;;;;;;;;;;5070902;28;20456;-80
2022/01/18 15:14:04;;;;;;;20.60;11.07;;;;;;;;;;5074317;28;20521;-79
2022/01/18 15:16:32;;;;;;;19.00;11.03;;;;;;;;;;5074389;28;21007;-79
2022/01/18 15:18:59;;;;;;;27.10;12.00;;;;;;;;;;5076274;28;20467;-78
2022/01/18 15:21:27;;;;;;;27.93;13.67;;;;;;;;;;5071469;28;20483;-79
2022/01/18 15:23:54;;;;;;;22.50;12.30;;;;;;;;;;5069658;28;20543;-79
2022/01/18 15:26:21;;;;;;;23.30;13.00;;;;;;;;;;5070224;28;21247;-79
2022/01/18 15:28:48;;;;;;;21.00;12.63;;;;;;;;;;5073352;28;20447;-81
2022/01/18 15:31:15;;;;;;;21.23;12.90;;;;;;;;;;5071223;28;20570;-83
2022/01/18 15:33:44;;;;;;;29.13;13.03;;;;;;;;;;5068913;28;20463;-82
2022/01/18 15:36:11;;;;;;;26.53;12.40;;;;;;;;;;5072909;28;20548;-78
2022/01/18 15:38:39;;;;;;;22.77;12.23;;;;;;;;;;5070483;28;20448;-81
2022/01/18 15:41:06;;;;;;;24.20;13.13;;;;;;;;;;5068031;28;20476;-79
2022/01/18 15:43:33;;;;;;;25.53;12.63;;;;;;;;;;5069909;28;21134;-80